createdAt,value
2022-09-28T00:01:18.030Z,96332.69
2022-09-28T00:03:46.851Z,96337.38
2022-09-28T00:06:16.526Z,96324.47
2022-09-28T00:08:44.820Z,96328.88
2022-09-28T00:11:15.656Z,96329.56
2022-09-28T00:13:44.204Z,96335.28
2022-09-28T00:16:14.567Z,96320.22
2022-09-28T00:18:43.141Z,96326.50
2022-09-28T00:21:19.665Z,96329.09
2022-09-28T00:24:06.900Z,96320.72
2022-09-28T00:26:35.249Z,96328.53
2022-09-28T00:29:03.761Z,96317.63
2022-09-28T00:31:33.217Z,96321.56
2022-09-28T00:34:02.127Z,96327.84
2022-09-28T00:36:31.396Z,96317.50
2022-09-28T00:38:59.904Z,96322.66
2022-09-28T00:41:28.482Z,96324.75
2022-09-28T00:44:27.428Z,96317.34
2022-09-28T00:47:08.256Z,96318.50
2022-09-28T00:49:44.703Z,96319.13
2022-09-28T00:52:15.390Z,96314.47
2022-09-28T00:54:44.058Z,96303.59
2022-09-28T00:57:12.360Z,96308.53
2022-09-28T00:59:40.700Z,96306.78
2022-09-28T01:02:10.791Z,96310.91
2022-09-28T01:04:39.198Z,96299.38
2022-09-28T01:07:09.093Z,96318.22
2022-09-28T01:09:39.375Z,96321.84
2022-09-28T01:12:08.654Z,96321.63
2022-09-28T01:14:36.852Z,96325.41
2022-09-28T01:17:09.173Z,96324.47
2022-09-28T01:20:05.917Z,96321.66
2022-09-28T01:23:01.761Z,96325.34
2022-09-28T01:25:56.560Z,96331.22
2022-09-28T01:28:27.194Z,96318.47
2022-09-28T01:30:55.275Z,96319.06
2022-09-28T01:33:26.660Z,96327.69
2022-09-28T01:36:00.386Z,96323.66
2022-09-28T01:38:34.581Z,96315.09
2022-09-28T01:41:02.894Z,96315.34
2022-09-28T01:43:31.557Z,96306.72
2022-09-28T01:46:07.371Z,96322.59
2022-09-28T01:48:59.435Z,96321.66
2022-09-28T01:51:51.543Z,96323.53
2022-09-28T01:54:47.796Z,96328.31
2022-09-28T01:57:20.892Z,96335.00
2022-09-28T02:00:04.804Z,96334.56
2022-09-28T02:03:05.924Z,96330.56
2022-09-28T02:05:51.625Z,96326.25
2022-09-28T02:08:27.179Z,96337.19
2022-09-28T02:11:18.623Z,96349.19
2022-09-28T02:13:54.547Z,96348.16
2022-09-28T02:16:31.518Z,96349.78
2022-09-28T02:18:59.926Z,96352.81
2022-09-28T02:21:47.345Z,96346.13
2022-09-28T02:24:39.858Z,96344.53
2022-09-28T02:27:20.013Z,96337.06
2022-09-28T02:29:49.224Z,96346.88
2022-09-28T02:32:17.738Z,96340.56
2022-09-28T02:34:46.121Z,96341.41
2022-09-28T02:37:14.369Z,96342.88
2022-09-28T02:39:42.664Z,96346.22
2022-09-28T02:42:20.013Z,96352.38
2022-09-28T02:45:14.641Z,96343.81
2022-09-28T02:48:13.891Z,96340.84
2022-09-28T02:51:15.224Z,96348.34
2022-09-28T02:54:18.954Z,96346.81
2022-09-28T02:56:53.231Z,96353.28
2022-09-28T02:59:44.526Z,96349.75
2022-09-28T03:02:48.288Z,96361.63
2022-09-28T03:05:23.442Z,96353.66
2022-09-28T03:08:20.232Z,96355.56
2022-09-28T03:10:52.001Z,96371.50
2022-09-28T03:13:20.972Z,96371.50
2022-09-28T03:15:49.555Z,96372.78
2022-09-28T03:18:19.286Z,96378.72
2022-09-28T03:20:47.758Z,96375.66
2022-09-28T03:23:31.223Z,96382.28
2022-09-28T03:25:59.901Z,96384.63
2022-09-28T03:28:28.406Z,96390.72
2022-09-28T03:30:57.054Z,96383.78
2022-09-28T03:33:25.541Z,96383.50
2022-09-28T03:35:53.893Z,96380.50
2022-09-28T03:38:22.221Z,96381.75
2022-09-28T03:40:57.608Z,96382.78
2022-09-28T03:43:26.915Z,96379.69
2022-09-28T03:46:02.019Z,96381.69
2022-09-28T03:48:34.478Z,96390.72
2022-09-28T03:51:04.723Z,96369.63
2022-09-28T03:53:33.475Z,96378.03
2022-09-28T03:56:12.417Z,96378.09
2022-09-28T03:58:41.357Z,96369.78
2022-09-28T04:01:16.985Z,96381.06
2022-09-28T04:03:47.435Z,96382.06
2022-09-28T04:06:15.756Z,96373.16
2022-09-28T04:08:44.002Z,96376.56
2022-09-28T04:11:12.664Z,96368.09
2022-09-28T04:13:41.466Z,96377.50
2022-09-28T04:16:12.439Z,96372.91
2022-09-28T04:18:44.718Z,96366.69
2022-09-28T04:21:37.136Z,96379.97
2022-09-28T04:24:11.273Z,96386.97
2022-09-28T04:26:39.535Z,96387.06
2022-09-28T04:29:16.568Z,96391.47
2022-09-28T04:32:13.988Z,96406.75
2022-09-28T04:34:44.352Z,96392.31
2022-09-28T04:37:13.593Z,96398.91
2022-09-28T04:39:45.095Z,96381.66
2022-09-28T04:42:19.816Z,96382.06
2022-09-28T04:44:50.505Z,96376.78
2022-09-28T04:47:18.819Z,96387.50
2022-09-28T04:50:06.150Z,96376.94
2022-09-28T04:52:37.885Z,96377.38
2022-09-28T04:55:06.930Z,96388.03
2022-09-28T04:57:36.281Z,96374.63
2022-09-28T05:00:05.542Z,96373.59
2022-09-28T05:02:36.509Z,96388.19
2022-09-28T05:05:46.077Z,96374.03
2022-09-28T05:08:30.764Z,96372.94
2022-09-28T05:11:00.516Z,96371.47
2022-09-28T05:13:30.497Z,96363.75
2022-09-28T05:16:03.058Z,96364.66
2022-09-28T05:18:36.234Z,96367.66
2022-09-28T05:21:13.266Z,96369.66
2022-09-28T05:23:46.506Z,96371.28
2022-09-28T05:26:15.423Z,96378.69
2022-09-28T05:28:45.278Z,96384.63
2022-09-28T05:31:42.634Z,96371.22
2022-09-28T05:34:18.988Z,96385.69
2022-09-28T05:36:47.545Z,96383.38
2022-09-28T05:39:15.884Z,96375.59
2022-09-28T05:41:44.255Z,96359.03
2022-09-28T05:44:12.949Z,96369.63
2022-09-28T05:46:41.395Z,96371.41
2022-09-28T05:49:11.397Z,96375.03
2022-09-28T05:51:40.495Z,96356.91
2022-09-28T05:54:10.357Z,96355.63
2022-09-28T05:56:42.888Z,96353.03
2022-09-28T05:59:12.359Z,96353.13
2022-09-28T06:01:41.340Z,96357.25
2022-09-28T06:04:11.815Z,96356.38
2022-09-28T06:06:43.432Z,96368.25
2022-09-28T06:09:11.788Z,96367.25
2022-09-28T06:11:42.765Z,96369.81
2022-09-28T06:14:25.243Z,96375.88
2022-09-28T06:16:54.482Z,96379.13
2022-09-28T06:19:24.017Z,96381.19
2022-09-28T06:22:09.325Z,96374.72
2022-09-28T06:24:46.053Z,96380.88
2022-09-28T06:27:14.494Z,96379.00
2022-09-28T06:29:43.583Z,96373.50
2022-09-28T06:32:14.608Z,96394.44
2022-09-28T06:34:44.875Z,96392.00
2022-09-28T06:37:13.349Z,96391.00
2022-09-28T06:39:41.722Z,96393.47
2022-09-28T06:42:10.609Z,96411.03
2022-09-28T06:45:05.509Z,96409.50
2022-09-28T06:48:00.386Z,96412.19
2022-09-28T06:50:40.951Z,96408.63
2022-09-28T06:53:36.100Z,96422.38
2022-09-28T06:56:11.991Z,96416.97
2022-09-28T06:58:40.403Z,96407.25
2022-09-28T07:01:09.639Z,96408.63
2022-09-28T07:03:47.029Z,96397.44
2022-09-28T07:06:18.780Z,96396.00
2022-09-28T07:09:32.389Z,96388.59
2022-09-28T07:12:28.376Z,96398.09
2022-09-28T07:15:01.779Z,96396.34
2022-09-28T07:17:30.587Z,96400.59
2022-09-28T07:20:17.429Z,96400.13
2022-09-28T07:22:48.604Z,96398.03
2022-09-28T07:25:22.075Z,96393.00
2022-09-28T07:28:28.260Z,96393.47
2022-09-28T07:31:25.823Z,96395.03
2022-09-28T07:34:23.807Z,96402.28
2022-09-28T07:37:14.096Z,96400.78
2022-09-28T07:40:01.228Z,96392.78
2022-09-28T07:42:32.166Z,96396.13
2022-09-28T07:45:00.539Z,96384.75
2022-09-28T07:47:34.671Z,96382.44
2022-09-28T07:50:22.234Z,96373.94
2022-09-28T07:52:57.922Z,96365.19
2022-09-28T07:55:42.038Z,96374.59
2022-09-28T07:58:17.338Z,96378.50
2022-09-28T08:01:07.887Z,96375.94
2022-09-28T08:03:37.003Z,96363.81
2022-09-28T08:06:12.860Z,96373.13
2022-09-28T08:08:45.003Z,96373.78
2022-09-28T08:11:17.457Z,96376.59
2022-09-28T08:14:06.193Z,96374.13
2022-09-28T08:17:04.769Z,96372.41
2022-09-28T08:20:14.206Z,96383.78
2022-09-28T08:22:43.464Z,96386.22
2022-09-28T08:25:12.633Z,96374.06
2022-09-28T08:27:41.100Z,96374.31
2022-09-28T08:30:10.203Z,96375.03
2022-09-28T08:32:39.143Z,96374.78
2022-09-28T08:35:30.727Z,96375.84
2022-09-28T08:38:19.548Z,96371.66
2022-09-28T08:41:37.084Z,96372.31
2022-09-28T08:44:30.227Z,96368.53
2022-09-28T08:47:40.887Z,96370.94
2022-09-28T08:50:28.750Z,96373.41
2022-09-28T08:53:38.291Z,96367.81
2022-09-28T08:56:32.113Z,96360.25
2022-09-28T08:59:22.620Z,96367.16
2022-09-28T09:02:03.981Z,96371.16
2022-09-28T09:04:34.588Z,96362.25
2022-09-28T09:07:45.114Z,96360.09
2022-09-28T09:10:50.310Z,96359.31
2022-09-28T09:13:49.575Z,96373.72
2022-09-28T09:16:26.339Z,96369.75
2022-09-28T09:19:51.476Z,96367.78
2022-09-28T09:22:39.444Z,96368.75
2022-09-28T09:25:19.692Z,96364.47
2022-09-28T09:27:53.811Z,96358.69
2022-09-28T09:30:30.511Z,96364.88
2022-09-28T09:33:31.103Z,96359.44
2022-09-28T09:36:35.245Z,96362.91
2022-09-28T09:40:05.725Z,96365.53
2022-09-28T09:43:27.973Z,96357.91
2022-09-28T09:46:42.138Z,96354.25
2022-09-28T09:49:26.818Z,96363.97
2022-09-28T09:52:07.440Z,96351.25
2022-09-28T09:54:38.424Z,96359.34
2022-09-28T09:57:17.966Z,96356.97
2022-09-28T09:59:51.968Z,96353.94
2022-09-28T10:02:29.516Z,96348.69
2022-09-28T10:05:12.289Z,96350.81
2022-09-28T10:08:06.834Z,96348.41
2022-09-28T10:10:56.869Z,96352.19
2022-09-28T10:13:29.592Z,96344.94
2022-09-28T10:16:01.656Z,96342.63
2022-09-28T10:18:43.555Z,96345.72
2022-09-28T10:21:32.773Z,96352.53
2022-09-28T10:24:08.891Z,96347.13
2022-09-28T10:26:41.137Z,96344.31
2022-09-28T10:29:17.914Z,96327.44
2022-09-28T10:31:50.527Z,96331.13
2022-09-28T10:34:28.917Z,96328.31
2022-09-28T10:37:03.849Z,96339.56
2022-09-28T10:40:06.344Z,96338.03
2022-09-28T10:42:36.608Z,96335.84
2022-09-28T10:45:14.646Z,96335.97
2022-09-28T10:47:44.889Z,96333.13
2022-09-28T10:50:24.109Z,96333.97
2022-09-28T10:53:20.299Z,96324.75
2022-09-28T10:56:22.568Z,96322.31
2022-09-28T10:59:00.805Z,96324.91
2022-09-28T11:01:44.920Z,96323.13
2022-09-28T11:04:19.572Z,96324.34
2022-09-28T11:06:48.134Z,96322.94
2022-09-28T11:09:39.614Z,96319.75
2022-09-28T11:12:18.667Z,96309.84
2022-09-28T11:14:47.564Z,96315.84
2022-09-28T11:17:26.761Z,96299.94
2022-09-28T11:19:59.683Z,96314.28
2022-09-28T11:22:34.364Z,96319.09
2022-09-28T11:25:24.687Z,96312.25
2022-09-28T11:27:52.953Z,96309.25
2022-09-28T11:30:28.067Z,96301.41
2022-09-28T11:33:42.766Z,96304.44
2022-09-28T11:36:49.828Z,96293.63
2022-09-28T11:39:38.156Z,96287.72
2022-09-28T11:42:32.769Z,96284.16
2022-09-28T11:45:31.020Z,96292.44
2022-09-28T11:48:06.484Z,96288.16
2022-09-28T11:50:51.754Z,96289.84
2022-09-28T11:53:27.937Z,96292.06
2022-09-28T11:56:16.801Z,96290.50
2022-09-28T11:58:47.519Z,96295.59
2022-09-28T12:01:31.345Z,96287.53
2022-09-28T12:04:38.517Z,96283.53
2022-09-28T12:07:12.662Z,96286.81
2022-09-28T12:09:50.850Z,96276.91
2022-09-28T12:12:43.847Z,96277.06
2022-09-28T12:15:20.410Z,96273.50
2022-09-28T12:17:53.413Z,96270.75
2022-09-28T12:22:56.042Z,96274.03
2022-09-28T12:25:24.466Z,96276.69
2022-09-28T12:28:00.439Z,96274.16
2022-09-28T12:30:31.378Z,96276.38
2022-09-28T12:33:12.602Z,96289.84
2022-09-28T12:36:07.736Z,96276.53
2022-09-28T12:39:17.708Z,96277.56
2022-09-28T12:42:11.288Z,96275.09
2022-09-28T12:44:54.751Z,96273.16
2022-09-28T12:47:44.884Z,96268.75
2022-09-28T12:50:39.924Z,96270.06
2022-09-28T12:53:09.087Z,96279.19
2022-09-28T12:55:56.629Z,96275.81
2022-09-28T12:58:48.929Z,96267.44
2022-09-28T13:01:23.026Z,96265.13
2022-09-28T13:04:17.226Z,96261.50
2022-09-28T13:07:22.531Z,96261.09
2022-09-28T13:10:03.475Z,96270.16
2022-09-28T13:12:40.856Z,96265.03
2022-09-28T13:15:47.094Z,96273.66
2022-09-28T13:18:41.512Z,96263.28
2022-09-28T13:21:18.980Z,96260.63
2022-09-28T13:23:47.674Z,96256.88
2022-09-28T13:26:29.006Z,96255.81
2022-09-28T13:31:34.037Z,96264.50
2022-09-28T13:34:04.882Z,96258.28
2022-09-28T13:36:33.275Z,96262.16
2022-09-28T13:39:01.618Z,96269.34
2022-09-28T13:41:37.326Z,96261.06
2022-09-28T13:44:12.630Z,96261.25
2022-09-28T13:46:52.985Z,96265.03
2022-09-28T13:49:25.189Z,96265.78
2022-09-28T13:52:05.774Z,96267.91
2022-09-28T13:55:00.291Z,96265.47
2022-09-28T13:57:58.320Z,96258.47
2022-09-28T14:00:43.663Z,96264.78
2022-09-28T14:03:28.355Z,96261.81
2022-09-28T14:06:08.392Z,96260.38
2022-09-28T14:09:03.990Z,96257.41
2022-09-28T14:11:35.583Z,96250.75
2022-09-28T14:14:14.030Z,96259.97
2022-09-28T14:16:42.691Z,96261.47
2022-09-28T14:19:24.632Z,96267.97
2022-09-28T14:22:23.785Z,96266.09
2022-09-28T14:25:12.750Z,96258.66
2022-09-28T14:28:05.189Z,96266.28
2022-09-28T14:30:42.804Z,96267.38
2022-09-28T14:33:24.666Z,96262.38
2022-09-28T14:35:58.851Z,96270.44
2022-09-28T14:39:13.329Z,96272.09
2022-09-28T14:41:42.230Z,96267.72
2022-09-28T14:44:16.789Z,96272.75
2022-09-28T14:46:46.172Z,96268.44
2022-09-28T14:49:17.845Z,96274.38
2022-09-28T14:51:48.941Z,96271.97
2022-09-28T14:54:24.683Z,96265.31
2022-09-28T14:56:53.043Z,96264.50
2022-09-28T14:59:36.414Z,96268.25
2022-09-28T15:02:17.209Z,96282.16
2022-09-28T15:04:56.150Z,96273.19
2022-09-28T15:07:29.955Z,96273.81
2022-09-28T15:09:58.837Z,96283.00
2022-09-28T15:12:28.668Z,96281.84
2022-09-28T15:15:05.282Z,96274.22
2022-09-28T15:17:39.472Z,96274.22
2022-09-28T15:20:50.470Z,96277.22
2022-09-28T15:23:30.824Z,96279.69
2022-09-28T15:25:59.783Z,96285.91
2022-09-28T15:28:28.251Z,96286.19
2022-09-28T15:31:03.631Z,96281.97
2022-09-28T15:34:10.591Z,96288.28
2022-09-28T15:36:42.685Z,96287.34
2022-09-28T15:39:31.162Z,96288.81
2022-09-28T15:42:00.891Z,96290.88
2022-09-28T15:44:38.342Z,96306.22
2022-09-28T15:47:15.504Z,96292.06
2022-09-28T15:50:01.432Z,96299.28
2022-09-28T15:52:41.236Z,96293.88
2022-09-28T15:55:26.424Z,96287.69
2022-09-28T15:58:15.952Z,96298.53
2022-09-28T16:00:48.528Z,96294.84
2022-09-28T16:03:24.576Z,96294.72
2022-09-28T16:06:06.183Z,96294.09
2022-09-28T16:08:44.844Z,96292.84
2022-09-28T16:11:20.904Z,96295.34
2022-09-28T16:14:06.436Z,96296.22
2022-09-28T16:16:43.365Z,96301.75
2022-09-28T16:19:26.211Z,96298.25
2022-09-28T16:21:58.894Z,96292.06
2022-09-28T16:24:29.903Z,96292.84
2022-09-28T16:27:02.639Z,96305.06
2022-09-28T16:29:40.371Z,96293.34
2022-09-28T16:32:27.336Z,96301.00
2022-09-28T16:35:13.361Z,96304.75
2022-09-28T16:37:42.957Z,96300.56
2022-09-28T16:40:11.946Z,96301.00
2022-09-28T16:42:48.798Z,96306.06
2022-09-28T16:45:21.970Z,96312.56
2022-09-28T16:47:56.654Z,96308.00
2022-09-28T16:50:26.084Z,96310.00
2022-09-28T16:53:24.820Z,96314.97
2022-09-28T16:55:53.322Z,96304.91
2022-09-28T16:58:22.583Z,96309.50
2022-09-28T17:00:53.390Z,96310.78
2022-09-28T17:03:24.753Z,96314.22
2022-09-28T17:05:54.218Z,96323.56
2022-09-28T17:08:24.484Z,96330.94
2022-09-28T17:11:16.610Z,96324.50
2022-09-28T17:13:45.221Z,96322.56
2022-09-28T17:16:37.118Z,96329.66
2022-09-28T17:19:20.582Z,96321.59
2022-09-28T17:21:49.471Z,96326.25
2022-09-28T17:24:22.327Z,96324.16
2022-09-28T17:26:55.206Z,96319.91
2022-09-28T17:29:23.945Z,96328.94
2022-09-28T17:31:54.175Z,96331.47
2022-09-28T17:34:25.088Z,96327.34
2022-09-28T17:36:57.362Z,96333.97
2022-09-28T17:39:29.185Z,96333.41
2022-09-28T17:42:01.328Z,96342.38
2022-09-28T17:44:31.953Z,96340.38
2022-09-28T17:47:09.443Z,96337.84
2022-09-28T17:49:38.849Z,96342.09
2022-09-28T17:52:10.413Z,96339.31
2022-09-28T17:54:39.227Z,96342.94
2022-09-28T17:57:10.962Z,96351.44
2022-09-28T17:59:42.630Z,96356.78
2022-09-28T18:02:11.950Z,96359.59
2022-09-28T18:04:51.696Z,96357.75
2022-09-28T18:07:21.219Z,96363.50
2022-09-28T18:09:56.912Z,96365.03
2022-09-28T18:12:27.150Z,96368.31
2022-09-28T18:14:57.035Z,96366.28
2022-09-28T18:17:25.375Z,96373.75
2022-09-28T18:20:16.389Z,96381.38
2022-09-28T18:22:51.947Z,96386.41
2022-09-28T18:25:26.934Z,96390.50
2022-09-28T18:28:00.579Z,96397.47
2022-09-28T18:30:29.374Z,96406.75
2022-09-28T18:33:23.291Z,96400.75
2022-09-28T18:35:56.425Z,96400.03
2022-09-28T18:38:25.358Z,96390.81
2022-09-28T18:40:56.760Z,96406.06
2022-09-28T18:43:26.555Z,96410.72
2022-09-28T18:45:59.274Z,96410.13
2022-09-28T18:48:37.812Z,96414.03
2022-09-28T18:51:09.789Z,96412.75
2022-09-28T18:53:40.967Z,96419.50
2022-09-28T18:56:11.910Z,96411.09
2022-09-28T18:58:46.173Z,96414.03
2022-09-28T19:01:32.090Z,96416.75
2022-09-28T19:04:02.616Z,96416.75
2022-09-28T19:06:32.567Z,96420.13
2022-09-28T19:09:09.178Z,96420.34
2022-09-28T19:11:37.928Z,96410.06
2022-09-28T19:14:06.454Z,96419.56
2022-09-28T19:16:35.790Z,96429.28
2022-09-28T19:19:09.474Z,96422.84
2022-09-28T19:21:38.002Z,96428.50
2022-09-28T19:24:06.605Z,96423.66
2022-09-28T19:26:35.564Z,96429.03
2022-09-28T19:29:03.973Z,96424.75
2022-09-28T19:31:32.943Z,96419.13
2022-09-28T19:34:10.472Z,96427.53
2022-09-28T19:36:45.328Z,96422.72
2022-09-28T19:39:20.791Z,96423.94
2022-09-28T19:41:52.579Z,96428.19
2022-09-28T19:44:25.548Z,96438.13
2022-09-28T19:47:01.129Z,96430.69
2022-09-28T19:49:33.511Z,96428.09
2022-09-28T19:52:12.728Z,96429.41
2022-09-28T19:54:48.649Z,96432.38
2022-09-28T19:57:20.013Z,96439.25
2022-09-28T19:59:52.137Z,96430.47
2022-09-28T20:02:21.408Z,96424.94
2022-09-28T20:04:49.820Z,96426.97
2022-09-28T20:07:18.224Z,96425.38
2022-09-28T20:09:48.531Z,96420.47
2022-09-28T20:12:19.057Z,96428.91
2022-09-28T20:14:47.437Z,96426.88
2022-09-28T20:17:15.763Z,96435.03
2022-09-28T20:19:46.677Z,96440.84
2022-09-28T20:22:16.756Z,96428.66
2022-09-28T20:24:44.979Z,96437.94
2022-09-28T20:27:13.345Z,96439.38
2022-09-28T20:29:43.248Z,96434.84
2022-09-28T20:32:11.874Z,96435.34
2022-09-28T20:34:40.098Z,96437.09
2022-09-28T20:37:08.491Z,96433.91
2022-09-28T20:39:39.392Z,96431.56
2022-09-28T20:42:09.792Z,96434.69
2022-09-28T20:44:38.360Z,96441.63
2022-09-28T20:47:06.683Z,96444.91
2022-09-28T20:49:35.090Z,96451.50
2022-09-28T20:52:03.474Z,96445.25
2022-09-28T20:54:31.779Z,96453.06
2022-09-28T20:57:00.294Z,96457.53
2022-09-28T20:59:28.977Z,96473.91
2022-09-28T21:01:57.365Z,96463.38
2022-09-28T21:04:26.139Z,96464.22
2022-09-28T21:06:54.561Z,96465.72
2022-09-28T21:09:22.792Z,96461.44
2022-09-28T21:11:51.117Z,96450.94
2022-09-28T21:14:19.623Z,96447.28
2022-09-28T21:16:48.277Z,96443.03
2022-09-28T21:19:16.616Z,96450.31
2022-09-28T21:21:44.875Z,96457.59
2022-09-28T21:24:13.357Z,96448.59
2022-09-28T21:26:41.856Z,96464.97
2022-09-28T21:29:14.139Z,96459.13
2022-09-28T21:31:47.494Z,96467.41
2022-09-28T21:34:20.985Z,96462.09
2022-09-28T21:36:51.597Z,96467.53
2022-09-28T21:39:20.409Z,96469.56
2022-09-28T21:41:48.790Z,96469.19
2022-09-28T21:44:17.205Z,96470.19
2022-09-28T21:46:45.653Z,96471.19
2022-09-28T21:49:14.600Z,96472.69
2022-09-28T21:51:42.881Z,96480.38
2022-09-28T21:54:12.238Z,96487.16
2022-09-28T21:56:40.785Z,96494.53
2022-09-28T21:59:09.084Z,96481.28
2022-09-28T22:01:37.511Z,96481.75
2022-09-28T22:04:06.175Z,96482.06
2022-09-28T22:06:35.292Z,96489.56
2022-09-28T22:09:03.680Z,96486.09
2022-09-28T22:11:31.948Z,96486.94
2022-09-28T22:14:00.379Z,96477.94
2022-09-28T22:16:29.843Z,96495.84
2022-09-28T22:18:58.754Z,96482.53
2022-09-28T22:21:28.669Z,96483.63
2022-09-28T22:24:01.364Z,96480.38
2022-09-28T22:26:30.538Z,96462.25
2022-09-28T22:29:04.415Z,96466.03
2022-09-28T22:31:39.365Z,96461.34
2022-09-28T22:34:07.903Z,96449.31
2022-09-28T22:36:36.285Z,96467.31
2022-09-28T22:39:04.944Z,96460.50
2022-09-28T22:41:33.344Z,96456.31
2022-09-28T22:44:02.010Z,96450.72
2022-09-28T22:46:32.340Z,96458.78
2022-09-28T22:49:01.037Z,96463.72
2022-09-28T22:51:29.839Z,96456.34
2022-09-28T22:53:58.204Z,96460.00
2022-09-28T22:56:26.522Z,96456.19
2022-09-28T22:58:54.947Z,96463.94
2022-09-28T23:01:24.974Z,96465.03
2022-09-28T23:03:53.503Z,96468.16
2022-09-28T23:06:22.969Z,96470.47
2022-09-28T23:08:51.754Z,96457.72
2022-09-28T23:11:20.078Z,96459.69
2022-09-28T23:13:55.713Z,96480.16
2022-09-28T23:16:25.865Z,96475.25
2022-09-28T23:18:55.158Z,96466.91
2022-09-28T23:21:24.865Z,96472.06
2022-09-28T23:23:54.921Z,96476.03
2022-09-28T23:26:28.265Z,96480.38
2022-09-28T23:28:56.692Z,96492.28
2022-09-28T23:31:29.559Z,96485.66
2022-09-28T23:34:07.350Z,96488.72
2022-09-28T23:36:36.164Z,96490.31
2022-09-28T23:39:04.565Z,96494.88
2022-09-28T23:41:32.797Z,96492.50
2022-09-28T23:44:01.086Z,96486.13
2022-09-28T23:46:29.426Z,96473.97
2022-09-28T23:48:57.660Z,96477.25
2022-09-28T23:51:25.929Z,96473.16
2022-09-28T23:53:54.189Z,96461.72
2022-09-28T23:56:22.463Z,96466.13
2022-09-28T23:58:51.744Z,96467.97
